createdAt,value
2022-11-16T00:00:02.817Z,88.78
2022-11-16T00:02:34.335Z,88.98
2022-11-16T00:05:00.790Z,89.29
2022-11-16T00:07:27.448Z,88.91
2022-11-16T00:09:54.156Z,88.71
2022-11-16T00:12:20.961Z,89.19
2022-11-16T00:14:47.569Z,89.11
2022-11-16T00:17:14.226Z,89.16
2022-11-16T00:19:42.195Z,89.11
2022-11-16T00:22:08.805Z,88.98
2022-11-16T00:24:35.573Z,89.06
2022-11-16T00:27:02.515Z,89.19
2022-11-16T00:29:29.242Z,89.06
2022-11-16T00:31:56.144Z,89.14
2022-11-16T00:34:23.438Z,89.58
2022-11-16T00:36:51.618Z,89.50
2022-11-16T00:39:18.898Z,89.31
2022-11-16T00:41:46.313Z,89.42
2022-11-16T00:44:13.599Z,89.65
2022-11-16T00:46:40.735Z,89.62
2022-11-16T00:49:07.752Z,89.42
2022-11-16T00:51:35.642Z,89.67
2022-11-16T00:54:05.460Z,89.69
2022-11-16T00:56:32.218Z,89.87
2022-11-16T00:58:58.912Z,89.38
2022-11-16T01:01:25.608Z,89.62
2022-11-16T01:03:52.506Z,89.74
2022-11-16T01:06:20.291Z,89.82
2022-11-16T01:08:46.866Z,89.85
2022-11-16T01:11:35.090Z,89.81
2022-11-16T01:14:03.694Z,89.94
2022-11-16T01:16:31.109Z,89.78
2022-11-16T01:18:57.966Z,89.76
2022-11-16T01:21:24.765Z,89.87
2022-11-16T01:23:51.917Z,90.07
2022-11-16T01:26:20.047Z,89.99
2022-11-16T01:28:46.885Z,89.62
2022-11-16T01:31:13.944Z,89.78
2022-11-16T01:33:41.022Z,89.70
2022-11-16T01:36:14.335Z,89.85
2022-11-16T01:38:42.485Z,90.08
2022-11-16T01:41:09.833Z,89.59
2022-11-16T01:43:56.291Z,89.81
2022-11-16T01:46:23.423Z,89.86
2022-11-16T01:48:54.794Z,89.83
2022-11-16T01:51:22.853Z,90.09
2022-11-16T01:53:50.055Z,89.93
2022-11-16T01:56:17.049Z,90.09
2022-11-16T01:58:43.924Z,90.33
2022-11-16T02:01:11.984Z,90.31
2022-11-16T02:03:39.405Z,90.20
2022-11-16T02:06:32.268Z,90.29
2022-11-16T02:09:36.217Z,90.05
2022-11-16T02:12:19.969Z,90.09
2022-11-16T02:15:04.365Z,90.10
2022-11-16T02:17:47.708Z,90.46
2022-11-16T02:20:42.244Z,90.40
2022-11-16T02:23:27.708Z,90.09
2022-11-16T02:26:04.695Z,90.07
2022-11-16T02:28:43.846Z,90.22
2022-11-16T02:31:16.772Z,90.35
2022-11-16T02:33:46.753Z,90.29
2022-11-16T02:36:20.438Z,90.35
2022-11-16T02:38:55.044Z,90.39
2022-11-16T02:41:25.565Z,90.49
2022-11-16T02:43:57.106Z,90.18
2022-11-16T02:46:29.230Z,90.54
2022-11-16T02:49:00.703Z,90.35
2022-11-16T02:51:29.200Z,90.24
2022-11-16T02:54:02.835Z,90.08
2022-11-16T02:56:30.248Z,90.38
2022-11-16T02:58:58.497Z,90.34
2022-11-16T03:01:34.450Z,90.44
2022-11-16T03:04:06.019Z,90.65
2022-11-16T03:06:39.446Z,90.38
2022-11-16T03:09:09.790Z,90.39
2022-11-16T03:11:59.442Z,90.33
2022-11-16T03:14:30.823Z,90.51
2022-11-16T03:17:00.522Z,90.18
2022-11-16T03:19:33.623Z,90.17
2022-11-16T03:22:06.958Z,90.35
2022-11-16T03:24:33.724Z,90.38
2022-11-16T03:27:06.107Z,90.40
2022-11-16T03:29:37.743Z,90.33
2022-11-16T03:32:13.520Z,90.20
2022-11-16T03:34:45.519Z,90.51
2022-11-16T03:37:13.281Z,90.42
2022-11-16T03:39:42.069Z,90.63
2022-11-16T03:42:10.826Z,90.77
2022-11-16T03:44:38.689Z,90.71
2022-11-16T03:47:06.937Z,90.36
2022-11-16T03:49:33.551Z,90.45
2022-11-16T03:52:00.266Z,90.24
2022-11-16T03:54:26.908Z,90.64
2022-11-16T03:56:53.483Z,90.50
2022-11-16T03:59:20.121Z,90.60
2022-11-16T04:01:46.757Z,90.58
2022-11-16T04:04:34.765Z,90.48
2022-11-16T04:07:20.010Z,90.74
2022-11-16T04:10:05.518Z,90.57
2022-11-16T04:12:58.129Z,90.40
2022-11-16T04:15:43.217Z,90.79
2022-11-16T04:18:29.689Z,90.89
2022-11-16T04:21:16.929Z,90.67
2022-11-16T04:24:02.796Z,90.73
2022-11-16T04:26:48.009Z,90.96
2022-11-16T04:29:14.770Z,90.72
2022-11-16T04:32:00.470Z,91.09
2022-11-16T04:34:45.609Z,90.86
2022-11-16T04:37:34.663Z,90.95
2022-11-16T04:40:01.262Z,90.77
2022-11-16T04:42:27.881Z,90.91
2022-11-16T04:45:12.933Z,90.83
2022-11-16T04:47:39.887Z,90.98
2022-11-16T04:50:07.261Z,90.91
2022-11-16T04:52:35.186Z,90.91
2022-11-16T04:55:02.079Z,90.98
2022-11-16T04:57:28.659Z,90.97
2022-11-16T04:59:55.281Z,90.79
2022-11-16T05:02:21.943Z,90.89
2022-11-16T05:04:48.648Z,91.09
2022-11-16T05:07:15.817Z,90.97
2022-11-16T05:09:45.339Z,90.93
2022-11-16T05:12:14.868Z,90.80
2022-11-16T05:14:41.902Z,90.99
2022-11-16T05:17:08.919Z,90.99
2022-11-16T05:19:54.661Z,90.79
2022-11-16T05:22:21.730Z,90.86
2022-11-16T05:24:49.634Z,90.76
2022-11-16T05:27:18.252Z,91.11
2022-11-16T05:29:45.478Z,91.16
2022-11-16T05:32:13.124Z,91.15
2022-11-16T05:34:39.912Z,91.08
2022-11-16T05:37:10.166Z,91.13
2022-11-16T05:39:37.364Z,91.16
2022-11-16T05:42:05.861Z,90.73
2022-11-16T05:44:32.775Z,90.96
2022-11-16T05:46:59.706Z,90.83
2022-11-16T05:49:26.621Z,91.12
2022-11-16T05:51:53.344Z,90.95
2022-11-16T05:54:22.382Z,90.90
2022-11-16T05:56:49.758Z,90.86
2022-11-16T05:59:19.489Z,90.82
2022-11-16T06:01:47.016Z,90.70
2022-11-16T06:04:14.659Z,90.69
2022-11-16T06:06:41.640Z,90.74
2022-11-16T06:09:10.505Z,90.58
2022-11-16T06:11:38.312Z,90.79
2022-11-16T06:14:05.009Z,90.54
2022-11-16T06:16:33.531Z,90.55
2022-11-16T06:19:00.667Z,90.50
2022-11-16T06:21:30.282Z,90.29
2022-11-16T06:23:56.938Z,90.16
2022-11-16T06:26:23.594Z,90.09
2022-11-16T06:28:50.191Z,90.31
2022-11-16T06:31:16.833Z,90.30
2022-11-16T06:33:45.540Z,89.94
2022-11-16T06:36:12.102Z,89.56
2022-11-16T06:38:38.744Z,90.00
2022-11-16T06:41:05.726Z,89.61
2022-11-16T06:43:32.480Z,89.36
2022-11-16T06:45:59.103Z,89.53
2022-11-16T06:48:26.370Z,89.63
2022-11-16T06:50:54.379Z,89.47
2022-11-16T06:53:27.585Z,89.38
2022-11-16T06:55:55.631Z,89.22
2022-11-16T06:58:22.371Z,89.21
2022-11-16T07:00:49.088Z,89.02
2022-11-16T07:03:16.043Z,89.01
2022-11-16T07:05:42.858Z,89.20
2022-11-16T07:08:11.027Z,88.69
2022-11-16T07:10:38.527Z,88.71
2022-11-16T07:13:05.582Z,88.88
2022-11-16T07:15:32.768Z,88.62
2022-11-16T07:18:04.584Z,88.54
2022-11-16T07:20:31.557Z,88.68
2022-11-16T07:23:00.142Z,88.51
2022-11-16T07:25:28.609Z,88.49
2022-11-16T07:27:55.335Z,88.47
2022-11-16T07:30:22.112Z,88.17
2022-11-16T07:32:48.722Z,88.65
2022-11-16T07:35:15.522Z,88.37
2022-11-16T07:37:42.159Z,88.22
2022-11-16T07:40:09.706Z,88.28
2022-11-16T07:42:37.842Z,88.22
2022-11-16T07:45:05.362Z,88.09
2022-11-16T07:47:35.774Z,87.77
2022-11-16T07:50:02.553Z,88.04
2022-11-16T07:52:29.216Z,88.19
2022-11-16T07:54:55.876Z,88.26
2022-11-16T07:57:22.441Z,88.12
2022-11-16T07:59:50.457Z,88.34
2022-11-16T08:02:17.067Z,88.22
2022-11-16T08:04:43.734Z,88.18
2022-11-16T08:07:11.553Z,88.12
2022-11-16T08:09:39.580Z,88.28
2022-11-16T08:12:06.685Z,88.21
2022-11-16T08:14:34.430Z,88.16
2022-11-16T08:17:03.591Z,88.54
2022-11-16T08:19:30.472Z,87.99
2022-11-16T08:21:57.146Z,88.37
2022-11-16T08:24:23.872Z,88.21
2022-11-16T08:26:50.997Z,88.42
2022-11-16T08:29:17.702Z,88.13
2022-11-16T08:31:45.276Z,88.33
2022-11-16T08:34:13.274Z,88.48
2022-11-16T08:36:39.983Z,88.62
2022-11-16T08:39:06.601Z,88.38
2022-11-16T08:41:35.820Z,88.39
2022-11-16T08:44:02.694Z,88.61
2022-11-16T08:46:29.567Z,88.73
2022-11-16T08:48:59.670Z,88.38
2022-11-16T08:51:27.569Z,88.77
2022-11-16T08:54:01.756Z,88.57
2022-11-16T08:56:30.072Z,88.75
2022-11-16T08:58:59.614Z,88.60
2022-11-16T09:01:28.280Z,88.25
2022-11-16T09:03:55.754Z,88.46
2022-11-16T09:06:24.233Z,88.19
2022-11-16T09:08:52.636Z,88.16
2022-11-16T09:11:21.046Z,88.47
2022-11-16T09:13:49.095Z,88.24
2022-11-16T09:16:16.985Z,88.37
2022-11-16T09:18:43.977Z,88.32
2022-11-16T09:21:10.697Z,88.08
2022-11-16T09:23:40.113Z,88.38
2022-11-16T09:26:08.225Z,88.43
2022-11-16T09:28:35.142Z,88.38
2022-11-16T09:31:04.328Z,88.07
2022-11-16T09:33:32.154Z,87.92
2022-11-16T09:36:01.821Z,88.24
2022-11-16T09:38:47.541Z,87.87
2022-11-16T09:41:29.555Z,87.83
2022-11-16T09:44:06.329Z,87.74
2022-11-16T09:46:36.889Z,87.87
2022-11-16T09:49:17.361Z,87.55
2022-11-16T09:51:49.089Z,87.68
2022-11-16T09:54:20.229Z,87.86
2022-11-16T09:56:51.732Z,87.51
2022-11-16T09:59:23.885Z,87.70
2022-11-16T10:01:54.742Z,87.23
2022-11-16T10:04:36.705Z,87.58
2022-11-16T10:07:06.325Z,87.44
2022-11-16T10:09:34.677Z,87.64
2022-11-16T10:12:11.289Z,87.42
2022-11-16T10:15:07.773Z,87.29
2022-11-16T10:17:48.220Z,87.01
2022-11-16T10:20:30.727Z,87.14
2022-11-16T10:23:07.311Z,86.87
2022-11-16T10:25:42.221Z,86.79
2022-11-16T10:28:33.555Z,86.62
2022-11-16T10:31:04.616Z,86.28
2022-11-16T10:33:37.063Z,86.48
2022-11-16T10:36:13.043Z,86.06
2022-11-16T10:38:41.498Z,86.42
2022-11-16T10:41:18.911Z,86.39
2022-11-16T10:43:49.252Z,86.16
2022-11-16T10:46:22.050Z,85.97
2022-11-16T10:48:57.622Z,85.87
2022-11-16T10:51:24.314Z,85.93
2022-11-16T10:53:53.053Z,85.67
2022-11-16T10:56:22.056Z,85.64
2022-11-16T10:58:52.585Z,85.43
2022-11-16T11:01:39.293Z,84.96
2022-11-16T11:04:17.739Z,84.92
2022-11-16T11:06:46.090Z,84.62
2022-11-16T11:09:19.939Z,84.62
2022-11-16T11:12:16.706Z,84.68
2022-11-16T11:17:43.208Z,84.63
2022-11-16T11:20:21.995Z,84.41
2022-11-16T11:22:53.624Z,84.18
2022-11-16T11:25:24.109Z,84.25
2022-11-16T11:28:06.857Z,83.91
2022-11-16T11:30:35.241Z,83.95
2022-11-16T11:33:12.870Z,84.07
2022-11-16T11:35:39.558Z,83.84
2022-11-16T11:38:08.650Z,83.60
2022-11-16T11:40:36.177Z,83.38
2022-11-16T11:43:05.494Z,83.08
2022-11-16T11:45:39.280Z,82.75
2022-11-16T11:48:25.576Z,82.35
2022-11-16T11:50:55.023Z,82.57
2022-11-16T11:53:39.847Z,82.54
2022-11-16T11:56:10.003Z,82.49
2022-11-16T11:58:39.987Z,82.35
2022-11-16T12:01:37.956Z,82.34
2022-11-16T12:04:34.729Z,81.35
2022-11-16T12:07:11.861Z,81.36
2022-11-16T12:09:47.723Z,81.49
2022-11-16T12:12:28.923Z,81.53
2022-11-16T12:15:17.039Z,81.51
2022-11-16T12:17:54.156Z,81.16
2022-11-16T12:20:39.126Z,81.34
2022-11-16T12:23:27.510Z,81.03
2022-11-16T12:26:02.283Z,80.53
2022-11-16T12:28:49.961Z,79.81
2022-11-16T12:31:28.486Z,79.44
2022-11-16T12:34:03.896Z,79.39
2022-11-16T12:36:39.275Z,79.24
2022-11-16T12:39:22.536Z,79.17
2022-11-16T12:42:33.976Z,79.36
2022-11-16T12:45:36.237Z,79.37
2022-11-16T12:48:40.672Z,78.93
2022-11-16T12:51:18.195Z,79.10
2022-11-16T12:54:07.710Z,79.01
2022-11-16T12:56:48.900Z,79.11
2022-11-16T12:59:43.764Z,79.20
2022-11-16T13:02:24.361Z,78.93
2022-11-16T13:05:00.657Z,78.99
2022-11-16T13:07:31.415Z,78.38
2022-11-16T13:10:28.605Z,78.60
2022-11-16T13:13:22.039Z,78.44
2022-11-16T13:15:47.942Z,77.89
2022-11-16T13:18:19.043Z,78.17
2022-11-16T13:20:51.787Z,78.43
2022-11-16T13:23:27.658Z,77.80
2022-11-16T13:26:01.969Z,77.72
2022-11-16T13:28:37.414Z,77.42
2022-11-16T13:31:09.942Z,77.30
2022-11-16T13:33:49.315Z,77.39
2022-11-16T13:36:43.430Z,77.10
2022-11-16T13:39:14.732Z,76.93
2022-11-16T13:41:49.346Z,76.74
2022-11-16T13:44:26.797Z,76.51
2022-11-16T13:46:57.190Z,76.34
2022-11-16T13:49:28.502Z,76.18
2022-11-16T13:52:03.434Z,76.36
2022-11-16T13:54:46.393Z,76.48
2022-11-16T13:57:24.595Z,76.40
2022-11-16T14:00:07.830Z,76.43
2022-11-16T14:02:36.485Z,76.62
2022-11-16T14:05:04.870Z,76.77
2022-11-16T14:07:40.477Z,76.63
2022-11-16T14:10:07.903Z,76.81
2022-11-16T14:12:57.818Z,76.61
2022-11-16T14:15:27.277Z,76.53
2022-11-16T14:17:59.618Z,76.62
2022-11-16T14:20:47.841Z,76.71
2022-11-16T14:23:25.787Z,76.71
2022-11-16T14:26:05.435Z,76.89
2022-11-16T14:28:50.468Z,76.82
2022-11-16T14:31:24.909Z,76.81
2022-11-16T14:33:54.642Z,76.87
2022-11-16T14:36:37.817Z,76.69
2022-11-16T14:39:26.301Z,76.95
2022-11-16T14:41:54.182Z,77.50
2022-11-16T14:44:26.247Z,77.23
2022-11-16T14:46:53.397Z,77.18
2022-11-16T14:49:21.547Z,76.77
2022-11-16T14:51:51.457Z,76.94
2022-11-16T14:54:25.530Z,77.23
2022-11-16T14:56:57.207Z,77.03
2022-11-16T14:59:25.994Z,77.05
2022-11-16T15:01:53.055Z,77.39
2022-11-16T15:04:21.917Z,77.15
2022-11-16T15:06:49.935Z,77.29
2022-11-16T15:09:24.899Z,77.53
2022-11-16T15:12:11.297Z,77.24
2022-11-16T15:14:44.361Z,77.27
2022-11-16T15:17:17.139Z,77.40
2022-11-16T15:19:52.758Z,77.54
2022-11-16T15:22:19.949Z,77.30
2022-11-16T15:24:55.513Z,77.03
2022-11-16T15:27:33.344Z,77.62
2022-11-16T15:30:03.507Z,77.35
2022-11-16T15:32:32.065Z,77.50
2022-11-16T15:35:03.968Z,77.24
2022-11-16T15:37:32.184Z,77.40
2022-11-16T15:40:00.838Z,77.61
2022-11-16T15:42:28.601Z,77.23
2022-11-16T15:44:56.270Z,77.38
2022-11-16T15:47:24.802Z,77.64
2022-11-16T15:49:53.076Z,77.46
2022-11-16T15:52:41.379Z,77.82
2022-11-16T15:55:21.397Z,77.77
2022-11-16T15:57:59.271Z,77.72
2022-11-16T16:00:27.862Z,77.37
2022-11-16T16:03:02.388Z,77.76
2022-11-16T16:05:40.703Z,77.74
2022-11-16T16:08:26.703Z,78.01
2022-11-16T16:11:06.590Z,77.66
2022-11-16T16:13:36.379Z,77.71
2022-11-16T16:16:31.459Z,77.59
2022-11-16T16:19:06.692Z,77.90
2022-11-16T16:21:44.832Z,77.50
2022-11-16T16:24:41.752Z,77.71
2022-11-16T16:27:13.748Z,78.00
2022-11-16T16:29:40.540Z,77.99
2022-11-16T16:32:12.759Z,77.84
2022-11-16T16:34:42.356Z,77.87
2022-11-16T16:37:11.544Z,77.63
2022-11-16T16:39:39.536Z,78.11
2022-11-16T16:42:08.381Z,77.90
2022-11-16T16:44:34.835Z,77.76
2022-11-16T16:47:01.496Z,78.23
2022-11-16T16:49:31.159Z,78.08
2022-11-16T16:51:59.302Z,77.93
2022-11-16T16:54:25.991Z,78.11
2022-11-16T16:56:52.714Z,78.55
2022-11-16T16:59:19.514Z,78.21
2022-11-16T17:01:46.161Z,78.13
2022-11-16T17:04:12.822Z,78.29
2022-11-16T17:06:45.228Z,78.38
2022-11-16T17:09:14.489Z,78.56
2022-11-16T17:11:41.125Z,78.31
2022-11-16T17:14:08.146Z,78.40
2022-11-16T17:16:35.125Z,78.62
2022-11-16T17:19:02.483Z,78.86
2022-11-16T17:21:29.532Z,78.65
2022-11-16T17:23:56.422Z,78.62
2022-11-16T17:26:29.176Z,78.88
2022-11-16T17:28:56.665Z,78.94
2022-11-16T17:31:24.193Z,78.76
2022-11-16T17:33:51.071Z,79.10
2022-11-16T17:36:18.207Z,78.91
2022-11-16T17:38:45.186Z,78.78
2022-11-16T17:41:13.903Z,79.44
2022-11-16T17:43:43.686Z,78.99
2022-11-16T17:46:11.894Z,79.34
2022-11-16T17:48:39.867Z,79.46
2022-11-16T17:51:06.665Z,79.51
2022-11-16T17:53:35.350Z,79.60
2022-11-16T17:56:02.899Z,79.21
2022-11-16T17:58:30.542Z,79.56
2022-11-16T18:00:59.087Z,79.49
2022-11-16T18:03:28.263Z,79.76
2022-11-16T18:06:01.142Z,79.35
2022-11-16T18:08:27.825Z,79.60
2022-11-16T18:10:54.432Z,79.92
2022-11-16T18:13:21.260Z,79.64
2022-11-16T18:15:47.855Z,79.80
2022-11-16T18:18:16.605Z,79.73
2022-11-16T18:20:43.246Z,79.73
2022-11-16T18:23:09.876Z,79.61
2022-11-16T18:25:36.936Z,79.81
2022-11-16T18:28:03.946Z,79.70
2022-11-16T18:30:30.506Z,79.83
2022-11-16T18:32:57.130Z,79.65
2022-11-16T18:35:25.246Z,79.84
2022-11-16T18:37:51.968Z,80.10
2022-11-16T18:40:18.947Z,80.07
2022-11-16T18:42:45.975Z,80.12
2022-11-16T18:45:12.611Z,79.96
2022-11-16T18:47:39.312Z,79.95
2022-11-16T18:50:14.559Z,80.30
2022-11-16T18:52:47.446Z,79.95
2022-11-16T18:55:14.370Z,80.18
2022-11-16T18:57:40.955Z,80.16
2022-11-16T19:00:10.015Z,80.17
2022-11-16T19:02:36.624Z,80.37
2022-11-16T19:05:03.697Z,80.33
2022-11-16T19:07:31.699Z,80.42
2022-11-16T19:09:59.928Z,80.66
2022-11-16T19:12:26.526Z,80.46
2022-11-16T19:14:55.042Z,80.39
2022-11-16T19:17:24.680Z,80.67
2022-11-16T19:19:51.389Z,80.18
2022-11-16T19:22:18.321Z,80.33
2022-11-16T19:24:44.984Z,80.19
2022-11-16T19:27:13.226Z,80.42
2022-11-16T19:29:39.804Z,80.58
2022-11-16T19:32:06.396Z,80.71
2022-11-16T19:34:33.623Z,80.57
2022-11-16T19:37:02.679Z,80.59
2022-11-16T19:39:29.444Z,80.42
2022-11-16T19:41:56.022Z,80.77
2022-11-16T19:44:26.137Z,80.51
2022-11-16T19:46:54.417Z,80.32
2022-11-16T19:49:21.908Z,80.50
2022-11-16T19:51:49.282Z,80.65
2022-11-16T19:54:16.045Z,80.61
2022-11-16T19:56:43.643Z,80.80
2022-11-16T19:59:10.368Z,80.63
2022-11-16T20:01:38.359Z,80.76
2022-11-16T20:04:05.431Z,81.00
2022-11-16T20:06:34.119Z,80.80
2022-11-16T20:09:08.346Z,80.92
2022-11-16T20:11:36.668Z,80.70
2022-11-16T20:14:05.123Z,80.79
2022-11-16T20:16:38.414Z,80.95
2022-11-16T20:19:07.895Z,80.68
2022-11-16T20:21:36.897Z,80.72
2022-11-16T20:24:06.693Z,80.74
2022-11-16T20:26:35.626Z,80.58
2022-11-16T20:29:02.418Z,80.90
2022-11-16T20:31:31.030Z,80.72
2022-11-16T20:33:59.462Z,80.74
2022-11-16T20:36:29.292Z,80.65
2022-11-16T20:38:57.083Z,81.08
2022-11-16T20:41:25.179Z,80.85
2022-11-16T20:43:54.495Z,80.85
2022-11-16T20:46:23.475Z,81.28
2022-11-16T20:48:50.499Z,81.20
2022-11-16T20:51:19.821Z,80.88
2022-11-16T20:53:49.146Z,80.97
2022-11-16T20:56:17.027Z,81.09
2022-11-16T20:58:43.774Z,81.12
2022-11-16T21:01:13.219Z,81.28
2022-11-16T21:03:40.384Z,81.04
2022-11-16T21:06:08.805Z,81.47
2022-11-16T21:08:36.903Z,81.21
2022-11-16T21:11:09.782Z,81.00
2022-11-16T21:13:54.765Z,81.48
2022-11-16T21:16:21.418Z,81.25
2022-11-16T21:18:47.970Z,81.04
2022-11-16T21:21:14.886Z,81.43
2022-11-16T21:23:51.494Z,81.21
2022-11-16T21:26:21.253Z,81.05
2022-11-16T21:28:48.239Z,81.18
2022-11-16T21:31:16.895Z,81.44
2022-11-16T21:33:44.338Z,81.32
2022-11-16T21:36:13.164Z,81.61
2022-11-16T21:38:39.840Z,81.61
2022-11-16T21:41:07.368Z,81.63
2022-11-16T21:43:40.419Z,81.42
2022-11-16T21:46:09.852Z,81.78
2022-11-16T21:48:36.930Z,81.80
2022-11-16T21:51:07.360Z,81.47
2022-11-16T21:53:34.927Z,81.69
2022-11-16T21:56:02.227Z,81.55
2022-11-16T21:58:29.152Z,81.58
2022-11-16T22:00:59.295Z,81.43
2022-11-16T22:03:28.092Z,81.79
2022-11-16T22:06:14.443Z,81.65
2022-11-16T22:08:41.727Z,81.88
2022-11-16T22:11:09.149Z,81.68
2022-11-16T22:13:36.865Z,81.89
2022-11-16T22:16:06.415Z,82.12
2022-11-16T22:18:33.534Z,81.75
2022-11-16T22:21:00.971Z,81.92
2022-11-16T22:23:28.399Z,82.01
2022-11-16T22:25:59.734Z,81.95
2022-11-16T22:28:26.473Z,81.92
2022-11-16T22:30:59.647Z,81.75
2022-11-16T22:33:27.755Z,82.08
2022-11-16T22:35:54.405Z,81.77
2022-11-16T22:38:21.478Z,82.00
2022-11-16T22:40:52.406Z,81.79
2022-11-16T22:43:19.979Z,82.03
2022-11-16T22:45:46.688Z,82.15
2022-11-16T22:48:14.030Z,82.00
2022-11-16T22:50:42.255Z,82.22
2022-11-16T22:53:09.099Z,82.00
2022-11-16T22:55:36.662Z,81.96
2022-11-16T22:58:03.713Z,82.18
2022-11-16T23:00:30.811Z,82.34
2022-11-16T23:02:57.543Z,82.32
2022-11-16T23:05:24.313Z,82.38
2022-11-16T23:07:55.868Z,82.61
2022-11-16T23:10:22.462Z,83.13
2022-11-16T23:13:07.762Z,83.22
2022-11-16T23:15:49.336Z,83.11
2022-11-16T23:18:18.832Z,83.58
2022-11-16T23:21:24.447Z,83.46
2022-11-16T23:24:16.102Z,84.05
2022-11-16T23:27:01.824Z,84.14
2022-11-16T23:29:28.774Z,84.51
2022-11-16T23:31:55.348Z,84.23
2022-11-16T23:34:25.046Z,84.64
2022-11-16T23:36:51.864Z,84.74
2022-11-16T23:39:19.806Z,85.18
2022-11-16T23:42:04.782Z,84.88
2022-11-16T23:44:31.341Z,85.15
2022-11-16T23:46:57.952Z,85.13
2022-11-16T23:49:24.536Z,86.05
2022-11-16T23:51:52.136Z,85.94
2022-11-16T23:54:20.065Z,85.85
2022-11-16T23:56:46.685Z,85.85
2022-11-16T23:59:13.265Z,86.07
